Allegro — V2CQ5 — position and weather

sailwx.info

Track history (hours):
 
Tides and Currents Weather Stations Pressure Air Temp Water Temp Dewpoint Dewpoint Depression Visibility Wind Speed Wind Dir Waves Ship Positions

Allegro

Last reported at 2018-Jun-01 18:28 UTC. Time now 2018-Jun-18 00:23 UTC.
Position N 36°44' E 000°40'.
Warning: this ship's position is 16 days out of date.

Length 134 m; draft 9 m.

Type: Ship (hazmat cat B). MMSI: 304642000.

Date/timePositionNaut miles runAvg speedWind from/ knotsBaromVisibWave heightAir tempDewpointWater temp
2018-Jun-01 18:28N 36°44' E 000°40'811.6
2018-Jun-01 17:47N 36°42' E 000°30'311.4
2018-Jun-01 17:30N 36°42' E 000°26'611.3
2018-Jun-01 17:00N 36°41' E 000°19'611.3
2018-Jun-01 16:29N 36°40' E 000°12'24912.0
2018-May-31 19:41N 36°03' W 004°54'313.7
2018-May-31 19:30N 36°02' W 004°57'713.6
2018-May-31 19:00N 36°01' W 005°05'713.9
2018-May-31 18:31N 36°00' W 005°13'612.1
2018-May-31 18:01N 36°02' W 005°20'611.3
2018-May-31 17:31N 36°06' W 005°24'1 2.9
2018-May-31 17:00N 36°08' W 005°25'0 0.0
2018-May-31 16:30N 36°08' W 005°25'0 0.0
2018-May-31 16:00N 36°08' W 005°25'0 0.0
2018-May-31 15:29N 36°08' W 005°25'0 0.0
2018-May-31 14:59N 36°08' W 005°25'0 0.0
2018-May-31 14:29N 36°08' W 005°25'0 0.0
2018-May-31 13:59N 36°08' W 005°25'0 0.0
2018-May-31 13:29N 36°08' W 005°25'0 0.0
2018-May-31 12:58N 36°08' W 005°25'0 0.0
2018-May-31 12:28N 36°08' W 005°25'0 0.0
2018-May-31 11:58N 36°08' W 005°25'0 0.0
2018-May-31 11:28N 36°08' W 005°25'0 0.0
2018-May-31 10:58N 36°08' W 005°25'0 0.6
2018-May-31 10:30N 36°08' W 005°25'1 2.1
2018-May-31 10:00N 36°08' W 005°24'1 2.5
2018-May-31 09:31N 36°07' W 005°24'5 9.7
2018-May-31 08:58N 36°03' W 005°19'3 6.9
2018-May-31 08:30N 36°04' W 005°15'2 3.3
2018-May-31 07:57N 36°04' W 005°13'1 2.7
2018-May-31 07:30N 36°05' W 005°11'2 4.1
2018-May-31 07:00N 36°04' W 005°14'2 4.9
2018-May-31 06:30N 36°04' W 005°17'3 5.7
2018-May-31 06:00N 36°04' W 005°20'1 1.4
2018-May-31 05:31N 36°03' W 005°20'713.1
2018-May-31 04:59N 36°05' W 005°11'6 3.8
2018-May-31 03:29N 36°06' W 005°04'0 0.9
2018-May-31 03:00N 36°06' W 005°05'0 0.8
2018-May-31 02:30N 36°07' W 005°05'0 0.8
2018-May-31 01:58N 36°07' W 005°05'0 0.8
2018-May-31 01:30N 36°08' W 005°05'0 0.6
2018-May-31 00:59N 36°08' W 005°05'0 0.3
2018-May-31 00:28N 36°08' W 005°06'0 0.7
2018-May-30 23:59N 36°08' W 005°06'0 1.0
2018-May-30 23:30N 36°09' W 005°06'0 0.6
2018-May-30 23:00N 36°09' W 005°06'0 0.5
2018-May-30 22:26N 36°09' W 005°06'0 0.3
2018-May-30 22:00N 36°09' W 005°06'4 7.7
2018-May-30 21:28N 36°07' W 005°10'2 3.7
2018-May-30 21:00N 36°06' W 005°12'2 4.2
2018-May-30 20:30N 36°05' W 005°14'3 5.5
2018-May-30 20:01N 36°04' W 005°17'1 1.2
2018-May-30 19:29N 36°04' W 005°17'1 2.8
2018-May-30 19:00N 36°04' W 005°16'2 3.7
2018-May-30 18:28N 36°05' W 005°13'612.1
2018-May-30 18:00N 36°07' W 005°07'5 1.0
2018-May-30 12:30N 36°12' W 005°04'3 6.2
2018-May-30 12:00N 36°12' W 005°08'1 1.0
2018-May-30 10:59N 36°11' W 005°08'3 6.5
2018-May-30 10:29N 36°09' W 005°12'2 5.0
2018-May-30 10:00N 36°08' W 005°14'3 5.1
2018-May-30 09:30N 36°06' W 005°16'3 5.5
2018-May-30 09:01N 36°04' W 005°18'4 7.6
2018-May-30 08:31N 36°02' W 005°23'611.5
2018-May-30 08:01N 35°58' W 005°27'4 0.4
2018-May-29 20:27N 35°54' W 005°29'3 4.4
2018-May-29 19:49N 35°54' W 005°33'2 4.9
2018-May-29 19:30N 35°53' W 005°34'  
2018-May-27 13:25N 35°52' W 005°34'3 6.3
2018-May-27 13:00N 35°55' W 005°33'611.7
2018-May-27 12:30N 35°59' W 005°28'5 9.3
2018-May-27 12:01N 36°00' W 005°23'4 8.8
2018-May-27 11:31N 36°01' W 005°17'4 8.8
2018-May-27 11:01N 36°01' W 005°12'5 9.0
2018-May-27 10:29N 36°02' W 005°06'20710.6
2018-May-26 14:56N 37°14' W 001°04'511.7
2018-May-26 14:30N 37°17' W 000°59'611.6
2018-May-26 14:00N 37°21' W 000°53'611.5
2018-May-26 13:30N 37°25' W 000°48'611.5
2018-May-26 13:00N 37°28' W 000°42'611.4
2018-May-26 12:29N 37°32' W 000°37'511.5
2018-May-26 12:00N 37°36' W 000°32'612.0
2018-May-26 11:30N 37°41' W 000°28'712.3
2018-May-26 10:57N 37°47' W 000°23'812.8
2018-May-26 10:22N 37°53' W 000°18'512.7
2018-May-26 10:00N 37°57' W 000°15'5612.0
2018-May-26 05:18N 38°45' E 000°23'4612.1
2018-May-26 01:28N 39°22' W 000°12'612.2
2018-May-26 01:00N 39°26' W 000°18'2 3.0
2018-May-26 00:30N 39°27' W 000°19'0 0.0
2018-May-26 00:00N 39°27' W 000°19'0 0.0
2018-May-25 23:29N 39°27' W 000°19'0 0.0
2018-May-25 22:59N 39°27' W 000°19'0 0.0
2018-May-25 22:17N 39°27' W 000°19'0 0.0
2018-May-25 21:47N 39°27' W 000°19'0 0.0
2018-May-25 21:23N 39°27' W 000°19'0 0.0
2018-May-25 19:43N 39°27' W 000°19'0 0.0
2018-May-25 18:45N 39°27' W 000°19'0 0.0
2018-May-25 18:30N 39°27' W 000°19'0 0.0
2018-May-25 17:57N 39°27' W 000°19'0 0.0
2018-May-25 17:30N 39°27' W 000°19'0 0.0
2018-May-25 16:45N 39°27' W 000°19'0 0.0
2018-May-25 16:29N 39°27' W 000°19'0 0.0
2018-May-25 15:56N 39°27' W 000°19'0 0.0
2018-May-25 15:26N 39°27' W 000°19'0 0.0
2018-May-25 14:59N 39°27' W 000°19'0 0.0
2018-May-25 14:26N 39°27' W 000°19'0 0.0
2018-May-25 13:51N 39°27' W 000°19'0 0.0
2018-May-25 13:15N 39°27' W 000°19'0 0.0
2018-May-25 12:57N 39°27' W 000°19'0 0.0
2018-May-25 12:27N 39°27' W 000°19'0 0.0
2018-May-25 11:59N 39°27' W 000°19'0 0.0
2018-May-25 11:14N 39°27' W 000°19'0 0.0
2018-May-25 10:59N 39°27' W 000°19'0 0.0
2018-May-25 10:26N 39°27' W 000°19'0 0.0
2018-May-25 09:55N 39°27' W 000°19'0 0.0
2018-May-25 09:28N 39°27' W 000°19'0 0.0
2018-May-25 08:55N 39°27' W 000°19'0 0.0
2018-May-25 08:28N 39°27' W 000°19'0 0.0
2018-May-25 07:58N 39°27' W 000°19'0 0.8
2018-May-25 07:30N 39°27' W 000°19'4 1.4
2018-May-25 04:44N 39°24' W 000°15'0 0.0
2018-May-25 04:20N 39°24' W 000°15'0 0.0
2018-May-25 03:26N 39°24' W 000°15'0 0.0
2018-May-25 02:56N 39°24' W 000°15'0 0.0
2018-May-25 02:25N 39°24' W 000°15'0 0.0
2018-May-25 01:49N 39°24' W 000°15'0 0.0
2018-May-25 01:25N 39°24' W 000°15'0 0.0
2018-May-25 00:58N 39°24' W 000°15'0 0.0
2018-May-24 16:33N 39°24' W 000°15'0 0.0
2018-May-24 16:03N 39°24' W 000°15'0 0.1
2018-May-24 15:57N 39°24' W 000°15'0 0.0
2018-May-24 02:24N 39°24' W 000°15'0 0.0
2018-May-24 01:57N 39°24' W 000°15'0 0.0
2018-May-23 19:42N 39°24' W 000°15'0 0.0
2018-May-23 19:30N 39°24' W 000°15'0 0.0
2018-May-23 14:04N 39°24' W 000°15'0 0.5
2018-May-23 13:43N 39°24' W 000°15'8111.5
2018-May-23 06:40N 39°12' E 001°28'1113.7
2018-May-23 05:50N 39°09' E 001°42'411.8
2018-May-23 05:30N 39°08' E 001°47'611.9
2018-May-23 05:00N 39°07' E 001°55'812.0
2018-May-23 04:19N 39°05' E 002°05'612.1
2018-May-23 03:48N 39°04' E 002°13'412.1
2018-May-23 03:30N 39°03' E 002°17'811.9
2018-May-23 02:51N 39°01' E 002°27'512.4
2018-May-23 02:29N 39°01' E 002°33'612.1
2018-May-23 02:00N 38°59' E 002°40'612.0
2018-May-23 01:30N 38°58' E 002°48'612.0
2018-May-23 01:00N 38°57' E 002°55'711.8
2018-May-23 00:27N 38°56' E 003°04'511.7
2018-May-23 00:00N 38°54' E 003°10'612.0
2018-May-22 23:28N 38°53' E 003°18'611.9
2018-May-22 23:00N 38°52' E 003°25'611.9
2018-May-22 22:30N 38°50' E 003°33'611.9
2018-May-22 22:00N 38°49' E 003°40'811.7
2018-May-22 21:22N 38°48' E 003°49'  
Track history (hours):
 
Tides and Currents Weather Stations Pressure Air Temp Water Temp Dewpoint Dewpoint Depression Visibility Wind Speed Wind Dir Waves Ship Positions

Allegro

Last reported at 2018-Jun-01 18:28 UTC. Time now 2018-Jun-18 00:23 UTC.
Position N 36°44' E 000°40'.
Warning: this ship's position is 16 days out of date.

Length 134 m; draft 9 m.

Type: Ship (hazmat cat B). MMSI: 304642000.

Date/timePositionNaut miles runAvg speedWind from/ knotsBaromVisibWave heightAir tempDewpointWater temp
2018-Jun-01 18:28N 36°44' E 000°40'811.6
2018-Jun-01 17:47N 36°42' E 000°30'311.4
2018-Jun-01 17:30N 36°42' E 000°26'611.3
2018-Jun-01 17:00N 36°41' E 000°19'611.3
2018-Jun-01 16:29N 36°40' E 000°12'24912.0
2018-May-31 19:41N 36°03' W 004°54'313.7
2018-May-31 19:30N 36°02' W 004°57'713.6
2018-May-31 19:00N 36°01' W 005°05'713.9
2018-May-31 18:31N 36°00' W 005°13'612.1
2018-May-31 18:01N 36°02' W 005°20'611.3
2018-May-31 17:31N 36°06' W 005°24'1 2.9
2018-May-31 17:00N 36°08' W 005°25'0 0.0
2018-May-31 16:30N 36°08' W 005°25'0 0.0
2018-May-31 16:00N 36°08' W 005°25'0 0.0
2018-May-31 15:29N 36°08' W 005°25'0 0.0
2018-May-31 14:59N 36°08' W 005°25'0 0.0
2018-May-31 14:29N 36°08' W 005°25'0 0.0
2018-May-31 13:59N 36°08' W 005°25'0 0.0
2018-May-31 13:29N 36°08' W 005°25'0 0.0
2018-May-31 12:58N 36°08' W 005°25'0 0.0
2018-May-31 12:28N 36°08' W 005°25'0 0.0
2018-May-31 11:58N 36°08' W 005°25'0 0.0
2018-May-31 11:28N 36°08' W 005°25'0 0.0
2018-May-31 10:58N 36°08' W 005°25'0 0.6
2018-May-31 10:30N 36°08' W 005°25'1 2.1
2018-May-31 10:00N 36°08' W 005°24'1 2.5
2018-May-31 09:31N 36°07' W 005°24'5 9.7
2018-May-31 08:58N 36°03' W 005°19'3 6.9
2018-May-31 08:30N 36°04' W 005°15'2 3.3
2018-May-31 07:57N 36°04' W 005°13'1 2.7
2018-May-31 07:30N 36°05' W 005°11'2 4.1
2018-May-31 07:00N 36°04' W 005°14'2 4.9
2018-May-31 06:30N 36°04' W 005°17'3 5.7
2018-May-31 06:00N 36°04' W 005°20'1 1.4
2018-May-31 05:31N 36°03' W 005°20'713.1
2018-May-31 04:59N 36°05' W 005°11'6 3.8
2018-May-31 03:29N 36°06' W 005°04'0 0.9
2018-May-31 03:00N 36°06' W 005°05'0 0.8
2018-May-31 02:30N 36°07' W 005°05'0 0.8
2018-May-31 01:58N 36°07' W 005°05'0 0.8
2018-May-31 01:30N 36°08' W 005°05'0 0.6
2018-May-31 00:59N 36°08' W 005°05'0 0.3
2018-May-31 00:28N 36°08' W 005°06'0 0.7
2018-May-30 23:59N 36°08' W 005°06'0 1.0
2018-May-30 23:30N 36°09' W 005°06'0 0.6
2018-May-30 23:00N 36°09' W 005°06'0 0.5
2018-May-30 22:26N 36°09' W 005°06'0 0.3
2018-May-30 22:00N 36°09' W 005°06'4 7.7
2018-May-30 21:28N 36°07' W 005°10'2 3.7
2018-May-30 21:00N 36°06' W 005°12'2 4.2
2018-May-30 20:30N 36°05' W 005°14'3 5.5
2018-May-30 20:01N 36°04' W 005°17'1 1.2
2018-May-30 19:29N 36°04' W 005°17'1 2.8
2018-May-30 19:00N 36°04' W 005°16'2 3.7
2018-May-30 18:28N 36°05' W 005°13'612.1
2018-May-30 18:00N 36°07' W 005°07'5 1.0
2018-May-30 12:30N 36°12' W 005°04'3 6.2
2018-May-30 12:00N 36°12' W 005°08'1 1.0
2018-May-30 10:59N 36°11' W 005°08'3 6.5
2018-May-30 10:29N 36°09' W 005°12'2 5.0
2018-May-30 10:00N 36°08' W 005°14'3 5.1
2018-May-30 09:30N 36°06' W 005°16'3 5.5
2018-May-30 09:01N 36°04' W 005°18'4 7.6
2018-May-30 08:31N 36°02' W 005°23'611.5
2018-May-30 08:01N 35°58' W 005°27'4 0.4
2018-May-29 20:27N 35°54' W 005°29'3 4.4
2018-May-29 19:49N 35°54' W 005°33'2 4.9
2018-May-29 19:30N 35°53' W 005°34'  
2018-May-27 13:25N 35°52' W 005°34'3 6.3
2018-May-27 13:00N 35°55' W 005°33'611.7
2018-May-27 12:30N 35°59' W 005°28'5 9.3
2018-May-27 12:01N 36°00' W 005°23'4 8.8
2018-May-27 11:31N 36°01' W 005°17'4 8.8
2018-May-27 11:01N 36°01' W 005°12'5 9.0
2018-May-27 10:29N 36°02' W 005°06'20710.6
2018-May-26 14:56N 37°14' W 001°04'511.7
2018-May-26 14:30N 37°17' W 000°59'611.6
2018-May-26 14:00N 37°21' W 000°53'611.5
2018-May-26 13:30N 37°25' W 000°48'611.5
2018-May-26 13:00N 37°28' W 000°42'611.4
2018-May-26 12:29N 37°32' W 000°37'511.5
2018-May-26 12:00N 37°36' W 000°32'612.0
2018-May-26 11:30N 37°41' W 000°28'712.3
2018-May-26 10:57N 37°47' W 000°23'812.8
2018-May-26 10:22N 37°53' W 000°18'512.7
2018-May-26 10:00N 37°57' W 000°15'5612.0
2018-May-26 05:18N 38°45' E 000°23'4612.1
2018-May-26 01:28N 39°22' W 000°12'612.2
2018-May-26 01:00N 39°26' W 000°18'2 3.0
2018-May-26 00:30N 39°27' W 000°19'0 0.0
2018-May-26 00:00N 39°27' W 000°19'0 0.0
2018-May-25 23:29N 39°27' W 000°19'0 0.0
2018-May-25 22:59N 39°27' W 000°19'0 0.0
2018-May-25 22:17N 39°27' W 000°19'0 0.0
2018-May-25 21:47N 39°27' W 000°19'0 0.0
2018-May-25 21:23N 39°27' W 000°19'0 0.0
2018-May-25 19:43N 39°27' W 000°19'0 0.0
2018-May-25 18:45N 39°27' W 000°19'0 0.0
2018-May-25 18:30N 39°27' W 000°19'0 0.0
2018-May-25 17:57N 39°27' W 000°19'0 0.0
2018-May-25 17:30N 39°27' W 000°19'0 0.0
2018-May-25 16:45N 39°27' W 000°19'0 0.0
2018-May-25 16:29N 39°27' W 000°19'0 0.0
2018-May-25 15:56N 39°27' W 000°19'0 0.0
2018-May-25 15:26N 39°27' W 000°19'0 0.0
2018-May-25 14:59N 39°27' W 000°19'0 0.0
2018-May-25 14:26N 39°27' W 000°19'0 0.0
2018-May-25 13:51N 39°27' W 000°19'0 0.0
2018-May-25 13:15N 39°27' W 000°19'0 0.0
2018-May-25 12:57N 39°27' W 000°19'0 0.0
2018-May-25 12:27N 39°27' W 000°19'0 0.0
2018-May-25 11:59N 39°27' W 000°19'0 0.0
2018-May-25 11:14N 39°27' W 000°19'0 0.0
2018-May-25 10:59N 39°27' W 000°19'0 0.0
2018-May-25 10:26N 39°27' W 000°19'0 0.0
2018-May-25 09:55N 39°27' W 000°19'0 0.0
2018-May-25 09:28N 39°27' W 000°19'0 0.0
2018-May-25 08:55N 39°27' W 000°19'0 0.0
2018-May-25 08:28N 39°27' W 000°19'0 0.0
2018-May-25 07:58N 39°27' W 000°19'0 0.8
2018-May-25 07:30N 39°27' W 000°19'4 1.4
2018-May-25 04:44N 39°24' W 000°15'0 0.0
2018-May-25 04:20N 39°24' W 000°15'0 0.0
2018-May-25 03:26N 39°24' W 000°15'0 0.0
2018-May-25 02:56N 39°24' W 000°15'0 0.0
2018-May-25 02:25N 39°24' W 000°15'0 0.0
2018-May-25 01:49N 39°24' W 000°15'0 0.0
2018-May-25 01:25N 39°24' W 000°15'0 0.0
2018-May-25 00:58N 39°24' W 000°15'0 0.0
2018-May-24 16:33N 39°24' W 000°15'0 0.0
2018-May-24 16:03N 39°24' W 000°15'0 0.1
2018-May-24 15:57N 39°24' W 000°15'0 0.0
2018-May-24 02:24N 39°24' W 000°15'0 0.0
2018-May-24 01:57N 39°24' W 000°15'0 0.0
2018-May-23 19:42N 39°24' W 000°15'0 0.0
2018-May-23 19:30N 39°24' W 000°15'0 0.0
2018-May-23 14:04N 39°24' W 000°15'0 0.5
2018-May-23 13:43N 39°24' W 000°15'8111.5
2018-May-23 06:40N 39°12' E 001°28'1113.7
2018-May-23 05:50N 39°09' E 001°42'411.8
2018-May-23 05:30N 39°08' E 001°47'611.9
2018-May-23 05:00N 39°07' E 001°55'812.0
2018-May-23 04:19N 39°05' E 002°05'612.1
2018-May-23 03:48N 39°04' E 002°13'412.1
2018-May-23 03:30N 39°03' E 002°17'811.9
2018-May-23 02:51N 39°01' E 002°27'512.4
2018-May-23 02:29N 39°01' E 002°33'612.1
2018-May-23 02:00N 38°59' E 002°40'612.0
2018-May-23 01:30N 38°58' E 002°48'612.0
2018-May-23 01:00N 38°57' E 002°55'711.8
2018-May-23 00:27N 38°56' E 003°04'511.7
2018-May-23 00:00N 38°54' E 003°10'612.0
2018-May-22 23:28N 38°53' E 003°18'611.9
2018-May-22 23:00N 38°52' E 003°25'611.9
2018-May-22 22:30N 38°50' E 003°33'611.9
2018-May-22 22:00N 38°49' E 003°40'811.7
2018-May-22 21:22N 38°48' E 003°49'  

Dump ship's entire track history